West Stafford, Connecticut
Current Conditions -  °F | °C
As of 6:52 AM on Wednesday 26 Nov 2014 (Local Time) from KIJD Reporting Station
Light Rain Light Rain  
Wind Chill:   Ceiling: 7000
Heat Index:   Visibility: 10mi
Dew Point: -1°   Wind: 3mph
Humidity: 62%   Direction: 10°N
Pressure: 30.17"   Gusts: NA
Location:  41.9885°N, 72.2592°W
Report Text: KIJD 261152Z AUTO 01003KT 10SM -RA BKN070 OVC090 06/M01 A3017 RMK AO2 RAB42 SLP216 P0000 60000 T00561011 10061 20039 55013
Loading
Personal Weather Stations






























Interactive Weather Map New forecast layout! Learn more

10-Day Weather Forecast

Advertisements
Track Severe Weather on mobile